Aérodrome :
LOGIN :

S'inscrire | Disclaimer

   EN    FR    IT 

 










Légende :    VFR   VFR Marginal   IFR   IFR Intensif   IFR Très Intensif
Visi : 
Plafond : 
>= 8 km
>= 3000ft
5 à 8 km
1000 à 3000 ft
1500m à 5 km
500 à 1000 ft
800 à 1500m
200 à 500 ft
< 800m
< 200 ft
Symboles :   Orages  Brouillard  Fortes neiges  Fortes précipitations  Vent > 20 kt
SIGMETs :   Divers  Orages  Givrage  Turbulence  Onde Orograph.  Cendres Volcan.






- Altitude de l'aérodrome : 580 ft


LFOA - Avord

DERNIER METAR :
  • 231700Z AUTO 36010KT 9999 FEW035 SCT042 BKN052 21/14 Q1018

METARs EXPIRÉS :
  • 231630Z AUTO 01010KT 9999 BKN032 BKN040 BKN056 20/14 Q1018
  • 231600Z AUTO 01010KT 9999 FEW033 BKN056 BKN066 20/14 Q1018
  • 231530Z AUTO 01011KT 9999 SCT036 BKN048 BKN056 21/14 Q1018
  • 231500Z AUTO 02008KT 350V060 9999 SCT037 BKN047 BKN054 21/14 Q1018
  • 231430Z AUTO 04007KT 010V100 9999 SCT036 SCT042 BKN050 21/13 Q1018

Prévision TAF périmée.



MET'MAP, la Météo Aéronautique d'un coup d'oeil ! - Copyright ORBIFLY Décembre 2007 - Disclaimer

ORBIFLY MET'MAP TEAM :

Programmation & Développement : Alexandra Zaïnal
Sur une idée originale de : Baudouin d'Aumeries
Assistance à la programmation : Marc-Olivier Méhu
Soutien technique & logistique : Manuel Goepfert

Contact : metmap@orbifly.com




SOURCES & CREDITS :

   NOAA